createdAt,value
2024-02-29T00:01:01.060Z,4.9
2024-02-29T00:01:59.987Z,4.8
2024-02-29T00:02:58.901Z,4.9
2024-02-29T00:04:00.968Z,4.9
2024-02-29T00:04:59.773Z,5
2024-02-29T00:06:01.339Z,5.3
2024-02-29T00:07:00.017Z,5
2024-02-29T00:07:58.782Z,4.6
2024-02-29T00:09:01.025Z,4.3
2024-02-29T00:09:59.778Z,4.4
2024-02-29T00:11:01.077Z,4.7
2024-02-29T00:11:59.728Z,4.8
2024-02-29T00:13:01.382Z,4.9
2024-02-29T00:14:00.151Z,4.9
2024-02-29T00:14:58.837Z,4.9
2024-02-29T00:16:01.023Z,5.1
2024-02-29T00:16:59.740Z,5.4
2024-02-29T00:18:01.033Z,5.2
2024-02-29T00:18:59.816Z,5.2
2024-02-29T00:20:01.025Z,5.5
2024-02-29T00:20:59.668Z,5.7
2024-02-29T00:22:00.461Z,5.8
2024-02-29T00:22:59.171Z,5.9
2024-02-29T00:23:59.905Z,6
2024-02-29T00:25:01.134Z,6
2024-02-29T00:25:59.810Z,5.9
2024-02-29T00:27:01.373Z,5.9
2024-02-29T00:28:00.176Z,5.9
2024-02-29T00:28:58.901Z,5.7
2024-02-29T00:30:01.648Z,5.6
2024-02-29T00:31:01.401Z,5.3
2024-02-29T00:32:00.055Z,5.3
2024-02-29T00:32:58.816Z,5.3
2024-02-29T00:34:01.025Z,5.3
2024-02-29T00:34:59.754Z,4.6
2024-02-29T00:36:09.053Z,4.5
2024-02-29T00:37:01.027Z,4.4
2024-02-29T00:37:59.695Z,4.3
2024-02-29T00:39:06.258Z,4.3
2024-02-29T00:40:01.474Z,4.6
2024-02-29T00:41:00.201Z,4.5
2024-02-29T00:41:58.890Z,4.7
2024-02-29T00:43:01.021Z,4.6
2024-02-29T00:43:59.729Z,4.8
2024-02-29T00:45:00.991Z,4.7
2024-02-29T00:45:59.891Z,5
2024-02-29T00:47:01.033Z,5.6
2024-02-29T00:47:59.785Z,5.8
2024-02-29T00:49:01.030Z,5.8
2024-02-29T00:49:59.749Z,5.9
2024-02-29T00:51:00.994Z,6
2024-02-29T00:51:59.781Z,5.9
2024-02-29T00:53:01.001Z,5.9
2024-02-29T00:53:59.671Z,6.3
2024-02-29T00:55:00.357Z,6.6
2024-02-29T00:56:00.975Z,6.9
2024-02-29T00:56:59.694Z,7.3
2024-02-29T00:58:00.959Z,7.6
2024-02-29T00:58:59.704Z,7.8
2024-02-29T01:00:01.078Z,7.8
2024-02-29T01:01:04.271Z,7.9
2024-02-29T01:02:01.083Z,7.9
2024-02-29T01:02:59.855Z,8
2024-02-29T01:04:01.078Z,8.2
2024-02-29T01:04:59.857Z,8.1
2024-02-29T01:06:06.610Z,8.1
2024-02-29T01:07:01.017Z,8.4
2024-02-29T01:07:59.668Z,8.5
2024-02-29T01:09:00.381Z,8.7
2024-02-29T01:09:59.083Z,8.9
2024-02-29T01:11:09.095Z,8.9
2024-02-29T01:11:59.783Z,9.6
2024-02-29T01:13:01.259Z,9.9
2024-02-29T01:14:00.025Z,9.7
2024-02-29T01:14:58.690Z,9.7
2024-02-29T01:16:12.438Z,9.9
2024-02-29T01:17:00.954Z,10
2024-02-29T01:17:59.661Z,10.2
2024-02-29T01:19:00.361Z,10.2
2024-02-29T01:19:59.143Z,10.2
2024-02-29T01:21:14.733Z,10.4
2024-02-29T01:22:01.165Z,10.3
2024-02-29T01:22:59.847Z,10.2
2024-02-29T01:24:01.250Z,10.3
2024-02-29T01:24:59.928Z,10.2
2024-02-29T01:25:58.650Z,10
2024-02-29T01:27:00.287Z,9.9
2024-02-29T01:27:59.016Z,10
2024-02-29T01:28:59.802Z,10.1
2024-02-29T01:30:00.977Z,10.2
2024-02-29T01:30:59.749Z,10
2024-02-29T01:32:09.226Z,10.2
2024-02-29T01:33:01.119Z,10.4
2024-02-29T01:33:59.879Z,10.6
2024-02-29T01:35:01.350Z,10.6
2024-02-29T01:36:00.046Z,10.8
2024-02-29T01:36:58.762Z,10.8
2024-02-29T01:38:00.997Z,10.9
2024-02-29T01:38:59.673Z,11
2024-02-29T01:40:00.385Z,11.1
2024-02-29T01:40:59.148Z,11.3
2024-02-29T01:41:59.879Z,11.4
2024-02-29T01:43:03.211Z,11.3
2024-02-29T01:43:59.889Z,11.3
2024-02-29T01:45:01.148Z,11.4
2024-02-29T01:45:59.848Z,11.4
2024-02-29T01:47:01.059Z,11.3
2024-02-29T01:47:59.743Z,11.3
2024-02-29T01:49:01.091Z,11.3
2024-02-29T01:49:59.825Z,11.3
2024-02-29T01:51:00.969Z,11.3
2024-02-29T01:51:59.818Z,11.1
2024-02-29T01:53:01.575Z,11
2024-02-29T01:54:00.204Z,10.9
2024-02-29T01:54:58.975Z,10.8
2024-02-29T01:55:59.658Z,10.9
2024-02-29T01:57:01.012Z,11
2024-02-29T01:57:59.872Z,11.2
2024-02-29T01:59:01.030Z,11.2
2024-02-29T01:59:59.680Z,11.3
2024-02-29T02:01:00.754Z,11.4
2024-02-29T02:01:59.553Z,11.4
2024-02-29T02:03:00.362Z,11.2
2024-02-29T02:03:59.036Z,11.1
2024-02-29T02:04:59.723Z,11.3
2024-02-29T02:06:01.073Z,11.6
2024-02-29T02:06:59.761Z,11.9
2024-02-29T02:08:00.974Z,12.2
2024-02-29T02:08:59.746Z,12.2
2024-02-29T02:10:01.090Z,12.3
2024-02-29T02:10:59.813Z,12.4
2024-02-29T02:12:01.123Z,12.6
2024-02-29T02:12:59.912Z,12.4
2024-02-29T02:13:58.556Z,12
2024-02-29T02:15:00.459Z,11.9
2024-02-29T02:15:59.201Z,11.8
2024-02-29T02:16:59.925Z,11.9
2024-02-29T02:18:01.104Z,11.9
2024-02-29T02:18:59.833Z,11.9
2024-02-29T02:20:02.688Z,11.9
2024-02-29T02:21:01.057Z,12
2024-02-29T02:21:59.789Z,12
2024-02-29T02:23:00.962Z,11.9
2024-02-29T02:23:59.622Z,11.8
2024-02-29T02:25:00.353Z,11.6
2024-02-29T02:25:59.488Z,11.5
2024-02-29T02:27:00.264Z,11.5
2024-02-29T02:27:58.941Z,11.5
2024-02-29T02:28:59.668Z,11.6
2024-02-29T02:30:00.318Z,11.5
2024-02-29T02:30:59.074Z,11.6
2024-02-29T02:31:59.804Z,11.4
2024-02-29T02:33:01.086Z,11.3
2024-02-29T02:33:59.838Z,11.2
2024-02-29T02:35:01.053Z,11.3
2024-02-29T02:35:59.869Z,11.5
2024-02-29T02:37:01.540Z,11.3
2024-02-29T02:38:00.222Z,11.4
2024-02-29T02:38:58.849Z,11.5
2024-02-29T02:40:01.122Z,11.5
2024-02-29T02:40:59.944Z,11.4
2024-02-29T02:41:59.749Z,11.4
2024-02-29T02:43:01.060Z,11.4
2024-02-29T02:43:59.862Z,11.3
2024-02-29T02:45:01.081Z,11.4
2024-02-29T02:45:59.792Z,11.3
2024-02-29T02:47:01.926Z,11.4
2024-02-29T02:48:01.371Z,11.5
2024-02-29T02:48:59.714Z,11.6
2024-02-29T02:50:00.955Z,11.4
2024-02-29T02:50:59.678Z,11.4
2024-02-29T02:52:05.554Z,11.5
2024-02-29T02:53:01.169Z,11.5
2024-02-29T02:53:59.837Z,11.5
2024-02-29T02:55:01.190Z,11.4
2024-02-29T02:55:59.850Z,11.4
2024-02-29T02:57:07.690Z,11.6
2024-02-29T02:58:00.282Z,11.7
2024-02-29T02:58:58.927Z,11.8
2024-02-29T02:59:59.769Z,11.8
2024-02-29T03:01:01.011Z,11.7
2024-02-29T03:02:10.507Z,11.6
2024-02-29T03:02:59.781Z,11.6
2024-02-29T03:04:01.100Z,11.6
2024-02-29T03:04:59.850Z,11.5
2024-02-29T03:06:00.944Z,11.5
2024-02-29T03:07:12.521Z,11.5
2024-02-29T03:07:59.589Z,11.4
2024-02-29T03:09:00.317Z,11.4
2024-02-29T03:09:59.170Z,11.5
2024-02-29T03:10:59.959Z,11.5
2024-02-29T03:11:58.833Z,11.3
2024-02-29T03:13:01.059Z,11.1
2024-02-29T03:13:59.726Z,11.1
2024-02-29T03:15:01.128Z,10.7
2024-02-29T03:15:59.785Z,10.7
2024-02-29T03:17:16.662Z,10.6
2024-02-29T03:18:01.417Z,10.8
2024-02-29T03:19:00.213Z,10.9
2024-02-29T03:19:58.852Z,11
2024-02-29T03:21:01.020Z,11.2
2024-02-29T03:21:59.722Z,11.2
2024-02-29T03:23:01.409Z,11.4
2024-02-29T03:24:00.047Z,11.5
2024-02-29T03:24:58.771Z,11.5
2024-02-29T03:26:01.178Z,11.6
2024-02-29T03:26:59.815Z,11.6
2024-02-29T03:28:01.000Z,11.4
2024-02-29T03:28:59.648Z,11.3
2024-02-29T03:30:00.986Z,10.9
2024-02-29T03:31:00.108Z,11
2024-02-29T03:31:58.830Z,11
2024-02-29T03:33:01.129Z,11
2024-02-29T03:33:59.949Z,11.1
2024-02-29T03:34:58.672Z,11.1
2024-02-29T03:36:00.399Z,11.2
2024-02-29T03:36:59.089Z,11.4
2024-02-29T03:37:59.788Z,11.6
2024-02-29T03:39:01.063Z,11.7
2024-02-29T03:39:59.734Z,11.7
2024-02-29T03:41:00.950Z,11.9
2024-02-29T03:41:59.720Z,11.9
2024-02-29T03:43:01.503Z,11.9
2024-02-29T03:44:00.243Z,12.1
2024-02-29T03:44:58.906Z,12.2
2024-02-29T03:46:00.995Z,12.4
2024-02-29T03:46:59.642Z,12.5
2024-02-29T03:48:01.018Z,12.8
2024-02-29T03:49:00.159Z,13
2024-02-29T03:49:58.970Z,13.1
2024-02-29T03:50:59.668Z,13.1
2024-02-29T03:52:00.439Z,13.2
2024-02-29T03:52:59.179Z,13
2024-02-29T03:54:00.221Z,12.9
2024-02-29T03:54:58.903Z,13
2024-02-29T03:56:01.039Z,12.8
2024-02-29T03:56:59.726Z,12.6
2024-02-29T03:58:01.115Z,12.6
2024-02-29T03:58:59.820Z,12.9
2024-02-29T04:00:01.204Z,13.1
2024-02-29T04:00:59.976Z,13.3
2024-02-29T04:01:58.748Z,13.3
2024-02-29T04:03:00.994Z,13.5
2024-02-29T04:03:59.698Z,13.7
2024-02-29T04:05:01.044Z,13.7
2024-02-29T04:05:59.673Z,13.8
2024-02-29T04:07:00.348Z,13.7
2024-02-29T04:07:59.073Z,13.6
2024-02-29T04:08:59.888Z,13.8
2024-02-29T04:10:01.475Z,13.6
2024-02-29T04:11:00.226Z,13.6
2024-02-29T04:11:58.894Z,13.6
2024-02-29T04:13:01.139Z,13.4
2024-02-29T04:13:59.912Z,13.2
2024-02-29T04:15:01.062Z,13
2024-02-29T04:15:59.734Z,12.9
2024-02-29T04:17:00.986Z,12.9
2024-02-29T04:17:59.911Z,13
2024-02-29T04:18:58.757Z,12.8
2024-02-29T04:20:01.011Z,12.4
2024-02-29T04:20:59.800Z,12.5
2024-02-29T04:22:01.145Z,12.8
2024-02-29T04:23:00.101Z,12.8
2024-02-29T04:23:58.782Z,12.8
2024-02-29T04:25:01.253Z,13
2024-02-29T04:26:00.018Z,12.9
2024-02-29T04:26:58.668Z,13.2
2024-02-29T04:28:01.122Z,13.3
2024-02-29T04:28:59.801Z,13.5
2024-02-29T04:30:01.050Z,13.6
2024-02-29T04:30:59.786Z,13.8
2024-02-29T04:32:00.966Z,13.9
2024-02-29T04:33:00.905Z,13.9
2024-02-29T04:33:59.659Z,14
2024-02-29T04:35:01.853Z,14.1
2024-02-29T04:36:01.119Z,14.3
2024-02-29T04:36:59.865Z,14.4
2024-02-29T04:38:03.354Z,14.2
2024-02-29T04:39:01.001Z,14.5
2024-02-29T04:39:59.901Z,14.6
2024-02-29T04:41:01.025Z,15.1
2024-02-29T04:41:59.685Z,15.2
2024-02-29T04:43:05.788Z,15
2024-02-29T04:44:01.479Z,14.9
2024-02-29T04:45:00.264Z,14.7
2024-02-29T04:45:58.908Z,14.5
2024-02-29T04:46:59.609Z,14.4
2024-02-29T04:48:08.681Z,14.3
2024-02-29T04:49:00.389Z,14.5
2024-02-29T04:49:59.134Z,14.4
2024-02-29T04:50:59.860Z,14.5
2024-02-29T04:52:01.359Z,14.4
2024-02-29T04:53:11.607Z,14.4
2024-02-29T04:53:59.776Z,14.4
2024-02-29T04:55:01.080Z,14.4
2024-02-29T04:55:59.776Z,14.3
2024-02-29T04:57:01.031Z,14
2024-02-29T04:58:14.063Z,13.9
2024-02-29T04:58:59.680Z,14
2024-02-29T05:00:00.437Z,14.1
2024-02-29T05:00:59.257Z,14.1
2024-02-29T05:02:02.143Z,14.2
2024-02-29T05:03:00.027Z,14.2
2024-02-29T05:03:58.700Z,14
2024-02-29T05:05:00.972Z,13.9
2024-02-29T05:05:59.746Z,14
2024-02-29T05:07:01.047Z,14.1
2024-02-29T05:07:59.757Z,14.2
2024-02-29T05:09:01.370Z,14.1
2024-02-29T05:10:00.107Z,13.9
2024-02-29T05:10:58.893Z,13.7
2024-02-29T05:12:01.016Z,13.5
2024-02-29T05:12:59.715Z,13.5
2024-02-29T05:14:00.407Z,13.5
2024-02-29T05:14:59.164Z,13.3
2024-02-29T05:15:59.887Z,13.3
2024-02-29T05:17:01.104Z,13.3
2024-02-29T05:17:59.810Z,13
2024-02-29T05:19:01.026Z,12.8
2024-02-29T05:19:59.900Z,12.4
2024-02-29T05:21:00.985Z,12
2024-02-29T05:21:59.680Z,11.7
2024-02-29T05:23:00.348Z,11.3
2024-02-29T05:23:59.148Z,11.4
2024-02-29T05:24:59.949Z,11.1
2024-02-29T05:25:58.639Z,10.8
2024-02-29T05:27:00.296Z,10.9
2024-02-29T05:27:58.964Z,10.7
2024-02-29T05:28:59.671Z,10.8
2024-02-29T05:30:01.017Z,10.6
2024-02-29T05:30:59.731Z,10.4
2024-02-29T05:32:01.146Z,10.4
2024-02-29T05:32:59.925Z,10.5
2024-02-29T05:33:58.645Z,10.7
2024-02-29T05:35:01.120Z,10.8
2024-02-29T05:35:59.828Z,10.9
2024-02-29T05:37:01.017Z,11.3
2024-02-29T05:37:59.891Z,11.4
2024-02-29T05:39:01.091Z,11.3
2024-02-29T05:39:59.846Z,11.3
2024-02-29T05:41:01.056Z,11.3
2024-02-29T05:41:59.754Z,11.5
2024-02-29T05:43:01.222Z,11.4
2024-02-29T05:43:59.874Z,11
2024-02-29T05:45:01.092Z,10.9
2024-02-29T05:45:59.840Z,10.4
2024-02-29T05:47:01.031Z,10.4
2024-02-29T05:47:59.735Z,10.3
2024-02-29T05:49:01.072Z,10.4
2024-02-29T05:49:59.828Z,10.4
2024-02-29T05:51:01.064Z,10.6
2024-02-29T05:51:59.792Z,10.7
2024-02-29T05:53:00.553Z,10.9
2024-02-29T05:53:59.234Z,11.1
2024-02-29T05:55:00.001Z,11.3
2024-02-29T05:55:58.800Z,11.3
2024-02-29T05:57:04.304Z,11.4
2024-02-29T05:58:01.035Z,11.4
2024-02-29T05:58:59.890Z,11.6
2024-02-29T06:00:01.001Z,11.6
2024-02-29T06:00:59.842Z,11.7
2024-02-29T06:01:58.737Z,11.8
2024-02-29T06:03:00.982Z,11.7
2024-02-29T06:03:59.746Z,11.8
2024-02-29T06:05:00.946Z,11.3
2024-02-29T06:05:59.685Z,11
2024-02-29T06:07:01.111Z,10.9
2024-02-29T06:07:59.831Z,10.9
2024-02-29T06:09:01.348Z,11
2024-02-29T06:10:00.015Z,11.1
2024-02-29T06:10:58.730Z,11.5
2024-02-29T06:12:00.984Z,12
2024-02-29T06:12:59.673Z,12.5
2024-02-29T06:14:00.361Z,12.6
2024-02-29T06:14:59.118Z,13
2024-02-29T06:15:59.803Z,13.3
2024-02-29T06:17:00.946Z,13.4
2024-02-29T06:18:00.109Z,13.4
2024-02-29T06:18:58.902Z,13.4
2024-02-29T06:19:59.575Z,13.7
2024-02-29T06:21:00.405Z,14
2024-02-29T06:21:59.341Z,14.5
2024-02-29T06:23:00.069Z,14.8
2024-02-29T06:23:58.907Z,15.1
2024-02-29T06:25:01.134Z,15.6
2024-02-29T06:25:59.843Z,16
2024-02-29T06:27:01.383Z,16.2
2024-02-29T06:28:00.069Z,16.6
2024-02-29T06:28:58.823Z,16.7
2024-02-29T06:30:00.954Z,17
2024-02-29T06:30:59.797Z,17.2
2024-02-29T06:32:01.018Z,17.7
2024-02-29T06:32:59.785Z,18.1
2024-02-29T06:34:01.444Z,18.2
2024-02-29T06:35:00.196Z,18.2
2024-02-29T06:35:58.885Z,18.8
2024-02-29T06:37:01.076Z,18.9
2024-02-29T06:37:59.820Z,19.2
2024-02-29T06:39:00.955Z,19.2
2024-02-29T06:40:00.032Z,19.4
2024-02-29T06:41:00.068Z,19.6
2024-02-29T06:41:58.707Z,19.6
2024-02-29T06:43:01.147Z,19.8
2024-02-29T06:44:01.657Z,20
2024-02-29T06:44:59.826Z,20
2024-02-29T06:46:01.043Z,20
2024-02-29T06:46:59.762Z,20
2024-02-29T06:48:01.061Z,20.3
2024-02-29T06:49:03.528Z,20.5
2024-02-29T06:50:00.976Z,20.8
2024-02-29T06:50:59.865Z,20.7
2024-02-29T06:52:01.215Z,20.7
2024-02-29T06:52:59.934Z,21.2
2024-02-29T06:54:06.001Z,21.5
2024-02-29T06:54:59.611Z,21.7
2024-02-29T06:56:00.402Z,21.9
2024-02-29T06:56:59.105Z,21.8
2024-02-29T06:57:59.858Z,21.9
2024-02-29T06:59:09.260Z,22
2024-02-29T07:00:00.989Z,22.9
2024-02-29T07:00:59.785Z,23.5
2024-02-29T07:02:01.522Z,23.9
2024-02-29T07:03:00.260Z,24.5
2024-02-29T07:04:12.175Z,25.4
2024-02-29T07:05:00.002Z,26.5
2024-02-29T07:05:58.660Z,27.4
2024-02-29T07:07:01.072Z,27.9
2024-02-29T07:07:59.825Z,27.8
2024-02-29T07:09:15.318Z,27.2
2024-02-29T07:10:00.334Z,26.8
2024-02-29T07:11:02.025Z,26.4
2024-02-29T07:11:59.809Z,26.2
2024-02-29T07:13:01.270Z,25.8
2024-02-29T07:14:00.148Z,25.8
2024-02-29T07:14:58.782Z,26
2024-02-29T07:16:01.181Z,25.7
2024-02-29T07:16:59.855Z,25.7
2024-02-29T07:18:01.062Z,25.9
2024-02-29T07:18:59.809Z,26.6
2024-02-29T07:20:01.332Z,27.5
2024-02-29T07:20:59.975Z,27.8
2024-02-29T07:21:58.701Z,28
2024-02-29T07:23:01.050Z,28.1
2024-02-29T07:23:59.783Z,28.9
2024-02-29T07:25:01.099Z,28.9
2024-02-29T07:25:59.809Z,28.9
2024-02-29T07:27:01.052Z,29
2024-02-29T07:27:59.889Z,29
2024-02-29T07:28:58.696Z,28.6
2024-02-29T07:30:00.956Z,28.6
2024-02-29T07:30:59.680Z,28.7
2024-02-29T07:32:00.997Z,29.4
2024-02-29T07:32:59.777Z,30
2024-02-29T07:34:01.014Z,30
2024-02-29T07:34:59.829Z,30
2024-02-29T07:36:01.031Z,30
2024-02-29T07:36:59.785Z,30
2024-02-29T07:38:01.040Z,30
2024-02-29T07:38:59.744Z,30
2024-02-29T07:40:01.350Z,30
2024-02-29T07:41:00.493Z,30.1
2024-02-29T07:41:59.413Z,30.1
2024-02-29T07:43:00.136Z,30.1
2024-02-29T07:43:59.010Z,30.1
2024-02-29T07:44:59.681Z,30.2
2024-02-29T07:46:01.480Z,30.1
2024-02-29T07:47:00.233Z,30.1
2024-02-29T07:47:59.030Z,30.1
2024-02-29T07:48:59.915Z,30.1
2024-02-29T07:49:59.276Z,30.2
2024-02-29T07:50:59.979Z,30.5
2024-02-29T07:51:58.746Z,30.3
2024-02-29T07:53:01.016Z,30.3
2024-02-29T07:53:59.678Z,30.6
2024-02-29T07:55:01.042Z,30.4
2024-02-29T07:55:59.799Z,30.4
2024-02-29T07:57:01.028Z,30.1
2024-02-29T07:57:59.733Z,29.6
2024-02-29T07:59:01.043Z,29.1
2024-02-29T07:59:59.873Z,28.4
2024-02-29T08:01:01.099Z,27.1
2024-02-29T08:01:59.949Z,26.2
2024-02-29T08:02:59.055Z,25.7
2024-02-29T08:03:59.755Z,26.1
2024-02-29T08:05:01.014Z,26.2
2024-02-29T08:05:59.747Z,26.2
2024-02-29T08:07:01.410Z,26.5
2024-02-29T08:08:00.213Z,26.8
2024-02-29T08:08:58.876Z,27.3
2024-02-29T08:10:00.770Z,27.6
2024-02-29T08:10:59.468Z,27.6
2024-02-29T08:12:00.269Z,27.8
2024-02-29T08:12:59.002Z,27.9
2024-02-29T08:13:59.711Z,27.9
2024-02-29T08:15:00.974Z,27.5
2024-02-29T08:15:59.745Z,27.6
2024-02-29T08:17:01.049Z,28
2024-02-29T08:17:59.751Z,28.7
2024-02-29T08:19:01.009Z,29.5
2024-02-29T08:19:59.740Z,29.6
2024-02-29T08:21:01.388Z,29.9
2024-02-29T08:22:00.126Z,30
2024-02-29T08:22:58.858Z,29.8
2024-02-29T08:24:00.969Z,29.6
2024-02-29T08:24:59.994Z,29.7
2024-02-29T08:25:58.947Z,29.6
2024-02-29T08:26:59.920Z,29.6
2024-02-29T08:28:01.076Z,30
2024-02-29T08:28:59.750Z,30.5
2024-02-29T08:30:01.940Z,30.6
2024-02-29T08:31:01.082Z,30.6
2024-02-29T08:31:59.863Z,30.6
2024-02-29T08:33:01.063Z,30.9
2024-02-29T08:33:59.838Z,31.4
2024-02-29T08:35:03.297Z,30.8
2024-02-29T08:36:01.019Z,30.6
2024-02-29T08:36:59.781Z,30.6
2024-02-29T08:38:01.022Z,30.7
2024-02-29T08:38:59.758Z,31.4
2024-02-29T08:40:05.660Z,32
2024-02-29T08:41:01.402Z,32.8
2024-02-29T08:42:00.108Z,32.8
2024-02-29T08:42:58.887Z,32.9
2024-02-29T08:44:01.020Z,33.1
2024-02-29T08:45:08.134Z,32.6
2024-02-29T08:46:01.281Z,32.5
2024-02-29T08:46:59.816Z,32.4
2024-02-29T08:48:01.131Z,32.4
2024-02-29T08:49:03.536Z,32.4
2024-02-29T08:50:10.193Z,32
2024-02-29T08:50:59.803Z,31.8
2024-02-29T08:52:01.076Z,32
2024-02-29T08:52:59.858Z,32.3
2024-02-29T08:54:01.269Z,32.7
2024-02-29T08:55:13.636Z,32.5
2024-02-29T08:55:59.976Z,32.6
2024-02-29T08:56:58.759Z,33.2
2024-02-29T08:58:00.980Z,33.7
2024-02-29T08:58:59.730Z,34.1
2024-02-29T09:00:17.110Z,34.2
2024-02-29T09:01:01.049Z,33.6
2024-02-29T09:01:59.861Z,33.7
2024-02-29T09:03:01.043Z,33.9
2024-02-29T09:03:59.749Z,34.1
2024-02-29T09:05:01.058Z,33.9
2024-02-29T09:05:59.740Z,33.5
2024-02-29T09:07:01.391Z,33.2
2024-02-29T09:08:00.146Z,33.1
2024-02-29T09:08:58.826Z,33
2024-02-29T09:10:01.112Z,33
2024-02-29T09:10:59.985Z,33.5
2024-02-29T09:11:58.726Z,33.9
2024-02-29T09:13:04.695Z,34.3
2024-02-29T09:14:00.017Z,34
2024-02-29T09:14:58.769Z,34.1
2024-02-29T09:16:01.460Z,34.4
2024-02-29T09:17:00.242Z,34.4
2024-02-29T09:17:59.039Z,34.3
2024-02-29T09:19:01.745Z,34.3
2024-02-29T09:19:59.816Z,34.5
2024-02-29T09:21:01.060Z,34.5
2024-02-29T09:21:59.721Z,34.2
2024-02-29T09:23:00.959Z,34.2
2024-02-29T09:23:59.639Z,33.8
2024-02-29T09:25:00.385Z,33.5
2024-02-29T09:25:59.033Z,33.1
2024-02-29T09:26:59.742Z,33.3
2024-02-29T09:28:01.030Z,33.2
2024-02-29T09:28:59.755Z,33.6
2024-02-29T09:30:01.006Z,33.8
2024-02-29T09:30:59.713Z,33.9
2024-02-29T09:32:01.069Z,34.3
2024-02-29T09:32:59.921Z,34.2
2024-02-29T09:33:58.701Z,34.1
2024-02-29T09:35:01.057Z,33.7
2024-02-29T09:35:59.705Z,33.7
2024-02-29T09:37:01.020Z,33.6
2024-02-29T09:37:59.831Z,34.2
2024-02-29T09:39:01.160Z,35
2024-02-29T09:40:01.984Z,35.2
2024-02-29T09:41:07.289Z,35.6
2024-02-29T09:42:12.366Z,36.4
2024-02-29T09:43:00.319Z,36.3
2024-02-29T09:43:59.042Z,35.7
2024-02-29T09:44:59.754Z,35.9
2024-02-29T09:46:01.036Z,35.4
2024-02-29T09:46:59.834Z,35
2024-02-29T09:48:00.945Z,35.1
2024-02-29T09:48:59.707Z,34.7
2024-02-29T09:50:05.257Z,33.9
2024-02-29T09:51:01.032Z,33.6
2024-02-29T09:51:59.753Z,33.5
2024-02-29T09:53:01.040Z,32.7
2024-02-29T09:53:59.720Z,31.2
2024-02-29T09:55:00.989Z,30.3
2024-02-29T09:55:59.734Z,30.4
2024-02-29T09:57:01.059Z,30.8
2024-02-29T09:57:59.800Z,30.1
2024-02-29T09:59:01.025Z,30.3
2024-02-29T09:59:59.686Z,30.4
2024-02-29T10:01:01.079Z,29.7
2024-02-29T10:02:00.085Z,30.3
2024-02-29T10:02:58.840Z,29.6
2024-02-29T10:04:01.187Z,28.1
2024-02-29T10:04:59.889Z,27.9
2024-02-29T10:06:01.293Z,27.8
2024-02-29T10:07:00.034Z,26.9
2024-02-29T10:07:58.775Z,26.3
2024-02-29T10:09:01.117Z,25.5
2024-02-29T10:09:59.862Z,25.1
2024-02-29T10:11:01.001Z,24.4
2024-02-29T10:11:59.783Z,24.7
2024-02-29T10:13:01.027Z,25.4
2024-02-29T10:13:59.745Z,24.1
2024-02-29T10:15:01.126Z,23.7
2024-02-29T10:16:04.132Z,22.4
2024-02-29T10:16:59.883Z,22
2024-02-29T10:18:01.111Z,21.7
2024-02-29T10:18:59.967Z,22.3
2024-02-29T10:19:58.657Z,22.6
2024-02-29T10:21:05.963Z,21.6
2024-02-29T10:22:00.251Z,21.3
2024-02-29T10:22:58.986Z,21.4
2024-02-29T10:23:59.719Z,21.9
2024-02-29T10:25:01.092Z,21.5
2024-02-29T10:26:08.981Z,21.8
2024-02-29T10:26:59.805Z,22
2024-02-29T10:28:01.101Z,21.5
2024-02-29T10:28:59.852Z,20.5
2024-02-29T10:30:00.986Z,20
2024-02-29T10:31:10.200Z,20
2024-02-29T10:31:59.759Z,20.9
2024-02-29T10:33:01.187Z,20.4
2024-02-29T10:33:59.788Z,19.8
2024-02-29T10:35:00.957Z,20.1
2024-02-29T10:36:12.567Z,20.3
2024-02-29T10:36:59.640Z,20.1
2024-02-29T10:38:00.310Z,19.8
2024-02-29T10:38:59.086Z,19.2
2024-02-29T10:40:00.019Z,18.1
2024-02-29T10:40:58.780Z,17.6
2024-02-29T10:42:01.437Z,17.7
2024-02-29T10:43:00.168Z,18.4
2024-02-29T10:43:58.928Z,18.3
2024-02-29T10:45:00.997Z,17.5
2024-02-29T10:45:59.753Z,16.6
2024-02-29T10:47:00.998Z,17.1
2024-02-29T10:47:59.704Z,16.7
2024-02-29T10:49:01.039Z,16.4
2024-02-29T10:49:59.778Z,15.9
2024-02-29T10:51:01.327Z,15.9
2024-02-29T10:52:00.038Z,15.7
2024-02-29T10:52:58.687Z,16.4
2024-02-29T10:54:01.073Z,16.8
2024-02-29T10:54:59.845Z,16.8
2024-02-29T10:56:01.041Z,16.7
2024-02-29T10:56:59.818Z,16.8
2024-02-29T10:58:01.109Z,16
2024-02-29T10:58:59.792Z,15.4
2024-02-29T11:00:01.465Z,15.6
2024-02-29T11:01:00.210Z,15
2024-02-29T11:01:59.175Z,15.4
2024-02-29T11:02:59.931Z,15.4
2024-02-29T11:03:58.773Z,14.8
2024-02-29T11:05:01.005Z,14.1
2024-02-29T11:05:59.672Z,13.8
2024-02-29T11:07:00.529Z,14.3
2024-02-29T11:07:59.279Z,15
2024-02-29T11:08:59.998Z,14.4
2024-02-29T11:09:58.698Z,14.2
2024-02-29T11:11:01.060Z,13.8
2024-02-29T11:11:59.797Z,13.6
2024-02-29T11:13:01.084Z,13.3
2024-02-29T11:13:59.834Z,12.8
2024-02-29T11:15:01.192Z,12.2
2024-02-29T11:15:59.984Z,12.2
2024-02-29T11:16:58.629Z,12.1
2024-02-29T11:18:01.029Z,12.2
2024-02-29T11:18:59.898Z,12.2
2024-02-29T11:20:01.053Z,12.2
2024-02-29T11:20:59.751Z,12.8
2024-02-29T11:22:01.036Z,13.4
2024-02-29T11:23:03.305Z,12.3
2024-02-29T11:23:59.792Z,12.2
2024-02-29T11:25:01.654Z,11.5
2024-02-29T11:26:00.350Z,11.6
2024-02-29T11:26:59.169Z,11.5
2024-02-29T11:27:59.928Z,11.7
2024-02-29T11:28:58.950Z,12.4
2024-02-29T11:29:59.955Z,11.1
2024-02-29T11:31:07.416Z,11.5
2024-02-29T11:31:59.788Z,10.7
2024-02-29T11:33:01.116Z,10.1
2024-02-29T11:34:00.379Z,10.4
2024-02-29T11:34:59.123Z,10.3
2024-02-29T11:35:59.857Z,9.5
2024-02-29T11:37:01.061Z,9.1
2024-02-29T11:37:59.754Z,8.7
2024-02-29T11:39:00.970Z,8.4
2024-02-29T11:39:59.698Z,8
2024-02-29T11:41:00.986Z,8.3
2024-02-29T11:41:59.677Z,8.1
2024-02-29T11:43:01.466Z,7.6
2024-02-29T11:44:00.208Z,7.4
2024-02-29T11:44:58.897Z,7.6
2024-02-29T11:46:00.721Z,7.6
2024-02-29T11:46:59.529Z,7.6
2024-02-29T11:48:01.119Z,7.6
2024-02-29T11:49:00.221Z,8
2024-02-29T11:49:58.905Z,8.7
2024-02-29T11:51:00.974Z,7.7
2024-02-29T11:51:59.701Z,7.2
2024-02-29T11:53:00.981Z,7.1
2024-02-29T11:53:59.664Z,6.3
2024-02-29T11:55:00.335Z,7.2
2024-02-29T11:56:07.002Z,6.8
2024-02-29T11:57:01.943Z,6.2
2024-02-29T11:58:00.231Z,5.3
2024-02-29T11:58:58.962Z,5.7
2024-02-29T11:59:59.719Z,6
2024-02-29T12:01:01.107Z,5.9
2024-02-29T12:02:00.973Z,5.8
2024-02-29T12:02:59.722Z,5.6
2024-02-29T12:04:01.100Z,4.7
2024-02-29T12:04:59.866Z,4.9
2024-02-29T12:06:00.989Z,4
2024-02-29T12:07:03.736Z,4
2024-02-29T12:07:59.640Z,4.8
2024-02-29T12:09:00.989Z,3.9
2024-02-29T12:10:15.228Z,3.4
2024-02-29T12:10:59.706Z,3.2
2024-02-29T12:12:06.656Z,2.7
2024-02-29T12:13:01.027Z,2.7
2024-02-29T12:13:59.783Z,1.8
2024-02-29T12:15:01.038Z,2.4
2024-02-29T12:15:59.856Z,2.8
2024-02-29T12:17:10.195Z,2.5
2024-02-29T12:18:01.067Z,2.8
2024-02-29T12:18:59.854Z,2.7
2024-02-29T12:20:01.546Z,2.2
2024-02-29T12:21:00.246Z,2.1
2024-02-29T12:22:12.501Z,1.7
2024-02-29T12:22:59.938Z,1.8
2024-02-29T12:23:58.976Z,2.1
2024-02-29T12:24:59.650Z,2.2
2024-02-29T12:26:01.014Z,2
2024-02-29T12:27:15.112Z,1.4
2024-02-29T12:27:59.674Z,1.2
2024-02-29T12:29:01.310Z,1.2
2024-02-29T12:29:59.996Z,1
2024-02-29T12:30:58.695Z,1
2024-02-29T12:32:01.044Z,1.1
2024-02-29T12:32:59.711Z,1
2024-02-29T12:34:01.164Z,1
2024-02-29T12:35:00.040Z,1
2024-02-29T12:35:58.747Z,1
2024-02-29T12:37:01.338Z,1
2024-02-29T12:37:59.603Z,1.3
2024-02-29T12:39:00.241Z,1.6
2024-02-29T12:39:58.932Z,1.2
2024-02-29T12:40:59.599Z,1.5
2024-02-29T12:42:00.301Z,1
2024-02-29T12:42:59.005Z,1
2024-02-29T12:43:59.787Z,1
2024-02-29T12:45:00.790Z,1
2024-02-29T12:45:59.546Z,1.3
2024-02-29T12:47:00.306Z,1.1
2024-02-29T12:47:58.981Z,1.4
2024-02-29T12:48:59.746Z,1
2024-02-29T12:50:01.079Z,1.3
2024-02-29T12:50:59.813Z,1.7
2024-02-29T12:52:01.164Z,1.6
2024-02-29T12:52:59.939Z,1.9
2024-02-29T12:53:58.606Z,1.8
2024-02-29T12:55:00.402Z,1.3
2024-02-29T12:55:59.124Z,1.2
2024-02-29T12:56:59.844Z,1.4
2024-02-29T12:58:01.021Z,1.2
2024-02-29T12:58:59.826Z,1
2024-02-29T13:00:00.999Z,1
2024-02-29T13:00:59.733Z,1
2024-02-29T13:02:01.240Z,1.1
2024-02-29T13:02:59.996Z,1.7
2024-02-29T13:03:58.753Z,1.9
2024-02-29T13:05:00.978Z,1.7
2024-02-29T13:05:59.707Z,2.3
2024-02-29T13:07:00.980Z,2.7
2024-02-29T13:07:59.737Z,2.9
2024-02-29T13:09:01.069Z,2.9
2024-02-29T13:10:00.037Z,3
2024-02-29T13:10:58.716Z,3
2024-02-29T13:12:01.422Z,3.5
2024-02-29T13:13:06.229Z,3.8
2024-02-29T13:14:01.071Z,4.2
2024-02-29T13:14:59.776Z,4.5
2024-02-29T13:16:01.206Z,4.7
2024-02-29T13:16:59.964Z,4.8
2024-02-29T13:17:58.772Z,5.1
2024-02-29T13:19:01.227Z,5.4
2024-02-29T13:19:59.995Z,5.6
2024-02-29T13:20:59.091Z,5.9
2024-02-29T13:22:01.157Z,5.9
2024-02-29T13:22:59.909Z,6.1
2024-02-29T13:24:01.050Z,6.4
2024-02-29T13:24:59.779Z,6.3
2024-02-29T13:26:02.966Z,6.3
2024-02-29T13:27:00.997Z,5.8
2024-02-29T13:27:59.780Z,6.3
2024-02-29T13:29:01.374Z,6.1
2024-02-29T13:30:00.072Z,6.8
2024-02-29T13:30:58.788Z,6.5
2024-02-29T13:32:04.027Z,7.1